Terminal Aerodrome Forecast
Issued by NWS

Home | Current Version | Previous Version | Text Only | Print | Product List | Glossary On
Versions: 1 2 3 4 5 6 7 8 9 10 11 12 13 14 15 16 17 18 19 20 21 22
000
FTUS46 KSEW 220900 AAA
TAFPAE
TAF AMD
KPAE 220903Z 2209/2306 13003KT P6SM SCT025 BKN070
      TEMPO 2209/2212 BKN025 OVC035
     FM221200 VRB03KT P6SM OVC015
     FM221800 20004KT P6SM BKN025 BKN100
     FM222000 20006KT P6SM BKN040 BKN100
     FM222300 15005KT P6SM SCT045 BKN100=

USA.gov is the U.S. government's official web portal to all federal, state and local government web resources and services.